West Bend, Wisconsin
Current Conditions -  °F | °C
As of 4:30 PM on Sunday 21 Dec 2014 (Local Time) from KETB Reporting Station
Overcast Overcast  
Wind Chill: -3°   Ceiling: 2700
Heat Index:   Visibility: 10mi
Dew Point: -1°   Wind: 8mph
Humidity: 87%   Direction: 150°SSE
Pressure: 30.02"   Gusts: NA
Location:  43.41°N, 88.18°W
Report Text: KETB 212230Z AUTO 15007KT 10SM SCT016 OVC027 01/M01 A3002 RMK AO2
Loading
Personal Weather Stations






























Interactive Weather Map New forecast layout! Learn more

10-Day Weather Forecast

Advertisements
Track Severe Weather on mobile